sensor_id;sensor_type;location;lat;lon;timestamp;temperature;humidity
2907;DHT22;1463;51.070;16.998;2023-04-15T00:00:42;11.80;99.90
2907;DHT22;1463;51.070;16.998;2023-04-15T00:03:09;11.80;99.90
2907;DHT22;1463;51.070;16.998;2023-04-15T00:05:38;11.80;99.90
2907;DHT22;1463;51.070;16.998;2023-04-15T00:08:06;11.80;99.90
2907;DHT22;1463;51.070;16.998;2023-04-15T00:10:34;11.80;99.90
2907;DHT22;1463;51.070;16.998;2023-04-15T00:13:01;11.80;99.90
2907;DHT22;1463;51.070;16.998;2023-04-15T00:15:29;11.80;99.90
2907;DHT22;1463;51.070;16.998;2023-04-15T00:17:56;11.70;99.90
2907;DHT22;1463;51.070;16.998;2023-04-15T00:20:24;11.70;99.90
2907;DHT22;1463;51.070;16.998;2023-04-15T00:22:53;11.80;99.90
2907;DHT22;1463;51.070;16.998;2023-04-15T00:25:20;11.70;99.90
2907;DHT22;1463;51.070;16.998;2023-04-15T00:27:48;11.70;99.90
2907;DHT22;1463;51.070;16.998;2023-04-15T00:30:15;11.70;99.90
2907;DHT22;1463;51.070;16.998;2023-04-15T00:32:43;11.80;99.90
2907;DHT22;1463;51.070;16.998;2023-04-15T00:35:11;11.80;99.90
2907;DHT22;1463;51.070;16.998;2023-04-15T00:37:39;11.80;99.90
2907;DHT22;1463;51.070;16.998;2023-04-15T00:40:12;11.80;99.90
2907;DHT22;1463;51.070;16.998;2023-04-15T00:42:39;11.80;99.90
2907;DHT22;1463;51.070;16.998;2023-04-15T00:45:07;11.70;99.90
2907;DHT22;1463;51.070;16.998;2023-04-15T00:47:36;11.80;99.90
2907;DHT22;1463;51.070;16.998;2023-04-15T00:50:04;11.80;99.90
2907;DHT22;1463;51.070;16.998;2023-04-15T00:52:32;11.90;99.90
2907;DHT22;1463;51.070;16.998;2023-04-15T00:54:59;11.80;99.90
2907;DHT22;1463;51.070;16.998;2023-04-15T00:57:29;11.80;99.90
2907;DHT22;1463;51.070;16.998;2023-04-15T00:59:57;11.70;99.90
2907;DHT22;1463;51.070;16.998;2023-04-15T01:02:24;11.80;99.90
2907;DHT22;1463;51.070;16.998;2023-04-15T01:04:52;11.80;99.90
2907;DHT22;1463;51.070;16.998;2023-04-15T01:07:19;11.80;99.90
2907;DHT22;1463;51.070;16.998;2023-04-15T01:09:46;11.80;99.90
2907;DHT22;1463;51.070;16.998;2023-04-15T01:12:16;11.80;99.90
2907;DHT22;1463;51.070;16.998;2023-04-15T01:14:44;11.70;99.90
2907;DHT22;1463;51.070;16.998;2023-04-15T01:17:12;11.70;99.90
2907;DHT22;1463;51.070;16.998;2023-04-15T01:19:40;11.70;99.90
2907;DHT22;1463;51.070;16.998;2023-04-15T01:22:07;11.80;99.90
2907;DHT22;1463;51.070;16.998;2023-04-15T01:24:36;11.70;99.90
2907;DHT22;1463;51.070;16.998;2023-04-15T01:27:05;11.60;99.90
2907;DHT22;1463;51.070;16.998;2023-04-15T01:29:37;11.70;99.90
2907;DHT22;1463;51.070;16.998;2023-04-15T01:32:06;11.70;99.90
2907;DHT22;1463;51.070;16.998;2023-04-15T01:34:33;11.80;99.90
2907;DHT22;1463;51.070;16.998;2023-04-15T01:37:01;11.80;99.90
2907;DHT22;1463;51.070;16.998;2023-04-15T01:39:28;11.80;99.90
2907;DHT22;1463;51.070;16.998;2023-04-15T01:41:55;11.70;99.90
2907;DHT22;1463;51.070;16.998;2023-04-15T01:44:25;11.80;99.90
2907;DHT22;1463;51.070;16.998;2023-04-15T01:46:52;11.70;99.90
2907;DHT22;1463;51.070;16.998;2023-04-15T01:49:19;11.70;99.90
2907;DHT22;1463;51.070;16.998;2023-04-15T01:51:47;11.80;99.90
2907;DHT22;1463;51.070;16.998;2023-04-15T01:54:14;11.70;99.90
2907;DHT22;1463;51.070;16.998;2023-04-15T01:56:42;11.80;99.90
2907;DHT22;1463;51.070;16.998;2023-04-15T01:59:09;11.80;99.90
2907;DHT22;1463;51.070;16.998;2023-04-15T02:01:38;11.80;99.90
2907;DHT22;1463;51.070;16.998;2023-04-15T02:04:06;11.80;99.90
2907;DHT22;1463;51.070;16.998;2023-04-15T02:06:41;11.80;99.90
2907;DHT22;1463;51.070;16.998;2023-04-15T02:09:08;11.80;99.90
2907;DHT22;1463;51.070;16.998;2023-04-15T02:11:36;11.80;99.90
2907;DHT22;1463;51.070;16.998;2023-04-15T02:14:04;11.80;99.90
2907;DHT22;1463;51.070;16.998;2023-04-15T02:16:32;11.70;99.90
2907;DHT22;1463;51.070;16.998;2023-04-15T02:19:01;11.70;99.90
2907;DHT22;1463;51.070;16.998;2023-04-15T02:21:29;11.70;99.90
2907;DHT22;1463;51.070;16.998;2023-04-15T02:23:56;11.60;99.90
2907;DHT22;1463;51.070;16.998;2023-04-15T02:26:23;11.70;99.90
2907;DHT22;1463;51.070;16.998;2023-04-15T02:28:51;11.70;99.90
2907;DHT22;1463;51.070;16.998;2023-04-15T02:31:18;11.70;99.90
2907;DHT22;1463;51.070;16.998;2023-04-15T02:33:46;11.70;99.90
2907;DHT22;1463;51.070;16.998;2023-04-15T02:36:15;11.70;99.90
2907;DHT22;1463;51.070;16.998;2023-04-15T02:38:42;11.70;99.90
2907;DHT22;1463;51.070;16.998;2023-04-15T02:41:10;11.70;99.90
2907;DHT22;1463;51.070;16.998;2023-04-15T02:43:37;11.60;99.90
2907;DHT22;1463;51.070;16.998;2023-04-15T02:46:04;11.50;99.90
2907;DHT22;1463;51.070;16.998;2023-04-15T02:48:32;11.50;99.90
2907;DHT22;1463;51.070;16.998;2023-04-15T02:51:15;11.50;99.90
2907;DHT22;1463;51.070;16.998;2023-04-15T02:53:44;11.60;99.90
2907;DHT22;1463;51.070;16.998;2023-04-15T02:56:11;11.40;99.90
2907;DHT22;1463;51.070;16.998;2023-04-15T02:58:40;11.40;99.90
2907;DHT22;1463;51.070;16.998;2023-04-15T03:01:08;11.30;99.90
2907;DHT22;1463;51.070;16.998;2023-04-15T03:03:35;11.20;99.90
2907;DHT22;1463;51.070;16.998;2023-04-15T03:06:03;11.10;99.90
2907;DHT22;1463;51.070;16.998;2023-04-15T03:08:32;11.00;99.90
2907;DHT22;1463;51.070;16.998;2023-04-15T03:10:59;11.00;99.90
2907;DHT22;1463;51.070;16.998;2023-04-15T03:13:27;11.00;99.90
2907;DHT22;1463;51.070;16.998;2023-04-15T03:15:55;11.10;99.90
2907;DHT22;1463;51.070;16.998;2023-04-15T03:18:22;11.10;99.90
2907;DHT22;1463;51.070;16.998;2023-04-15T03:20:49;10.90;99.90
2907;DHT22;1463;51.070;16.998;2023-04-15T03:23:17;10.70;99.90
2907;DHT22;1463;51.070;16.998;2023-04-15T03:25:46;10.50;99.90
2907;DHT22;1463;51.070;16.998;2023-04-15T03:28:13;10.40;99.90
2907;DHT22;1463;51.070;16.998;2023-04-15T03:30:40;10.50;99.90
2907;DHT22;1463;51.070;16.998;2023-04-15T03:33:08;10.60;99.90
2907;DHT22;1463;51.070;16.998;2023-04-15T03:35:35;10.50;99.90
2907;DHT22;1463;51.070;16.998;2023-04-15T03:38:03;10.40;99.90
2907;DHT22;1463;51.070;16.998;2023-04-15T03:40:30;10.50;99.90
2907;DHT22;1463;51.070;16.998;2023-04-15T03:42:59;10.40;99.90
2907;DHT22;1463;51.070;16.998;2023-04-15T03:45:26;10.40;99.90
2907;DHT22;1463;51.070;16.998;2023-04-15T03:47:54;10.40;99.90
2907;DHT22;1463;51.070;16.998;2023-04-15T03:50:21;10.40;99.90
2907;DHT22;1463;51.070;16.998;2023-04-15T03:52:49;10.40;99.90
2907;DHT22;1463;51.070;16.998;2023-04-15T03:55:16;10.30;99.90
2907;DHT22;1463;51.070;16.998;2023-04-15T03:57:44;10.50;99.90
2907;DHT22;1463;51.070;16.998;2023-04-15T04:00:13;10.40;99.90
2907;DHT22;1463;51.070;16.998;2023-04-15T04:02:41;10.20;99.90
2907;DHT22;1463;51.070;16.998;2023-04-15T04:05:08;10.30;99.90
2907;DHT22;1463;51.070;16.998;2023-04-15T04:07:36;10.30;99.90
2907;DHT22;1463;51.070;16.998;2023-04-15T04:10:04;10.30;99.90
2907;DHT22;1463;51.070;16.998;2023-04-15T04:12:31;10.30;99.90
2907;DHT22;1463;51.070;16.998;2023-04-15T04:14:59;10.30;99.90
2907;DHT22;1463;51.070;16.998;2023-04-15T04:17:28;10.20;99.90
2907;DHT22;1463;51.070;16.998;2023-04-15T04:19:55;10.10;99.90
2907;DHT22;1463;51.070;16.998;2023-04-15T04:22:23;10.20;99.90
2907;DHT22;1463;51.070;16.998;2023-04-15T04:24:50;10.10;99.90
2907;DHT22;1463;51.070;16.998;2023-04-15T04:27:18;10.10;99.90
2907;DHT22;1463;51.070;16.998;2023-04-15T04:29:45;10.10;99.90
2907;DHT22;1463;51.070;16.998;2023-04-15T04:32:14;10.20;99.90
2907;DHT22;1463;51.070;16.998;2023-04-15T04:34:43;10.20;99.90
2907;DHT22;1463;51.070;16.998;2023-04-15T04:37:11;10.30;99.90
2907;DHT22;1463;51.070;16.998;2023-04-15T04:39:38;10.30;99.90
2907;DHT22;1463;51.070;16.998;2023-04-15T04:42:06;10.20;99.90
2907;DHT22;1463;51.070;16.998;2023-04-15T04:44:33;10.10;99.90
2907;DHT22;1463;51.070;16.998;2023-04-15T04:47:01;10.10;99.90
2907;DHT22;1463;51.070;16.998;2023-04-15T04:49:28;10.20;99.90
2907;DHT22;1463;51.070;16.998;2023-04-15T04:51:57;10.20;99.90
2907;DHT22;1463;51.070;16.998;2023-04-15T04:54:24;10.10;99.90
2907;DHT22;1463;51.070;16.998;2023-04-15T04:56:52;10.10;99.90
2907;DHT22;1463;51.070;16.998;2023-04-15T04:59:20;10.10;99.90
2907;DHT22;1463;51.070;16.998;2023-04-15T05:01:47;10.00;99.90
2907;DHT22;1463;51.070;16.998;2023-04-15T05:04:15;9.90;99.90
2907;DHT22;1463;51.070;16.998;2023-04-15T05:06:42;9.90;99.90
2907;DHT22;1463;51.070;16.998;2023-04-15T05:09:11;9.90;99.90
2907;DHT22;1463;51.070;16.998;2023-04-15T05:11:38;9.80;99.90
2907;DHT22;1463;51.070;16.998;2023-04-15T05:14:06;9.70;99.90
2907;DHT22;1463;51.070;16.998;2023-04-15T05:16:33;9.50;99.90
2907;DHT22;1463;51.070;16.998;2023-04-15T05:19:01;9.40;99.90
2907;DHT22;1463;51.070;16.998;2023-04-15T05:21:28;9.40;99.90
2907;DHT22;1463;51.070;16.998;2023-04-15T05:23:56;9.30;99.90
2907;DHT22;1463;51.070;16.998;2023-04-15T05:26:25;9.30;99.90
2907;DHT22;1463;51.070;16.998;2023-04-15T05:28:53;9.30;99.90
2907;DHT22;1463;51.070;16.998;2023-04-15T05:31:20;9.30;99.90
2907;DHT22;1463;51.070;16.998;2023-04-15T05:33:47;9.30;99.90
2907;DHT22;1463;51.070;16.998;2023-04-15T05:36:15;9.30;99.90
2907;DHT22;1463;51.070;16.998;2023-04-15T05:38:42;9.40;99.90
2907;DHT22;1463;51.070;16.998;2023-04-15T05:41:10;9.50;99.90
2907;DHT22;1463;51.070;16.998;2023-04-15T05:43:42;9.50;99.90
2907;DHT22;1463;51.070;16.998;2023-04-15T05:46:09;9.50;99.90
2907;DHT22;1463;51.070;16.998;2023-04-15T05:48:36;9.60;99.90
2907;DHT22;1463;51.070;16.998;2023-04-15T05:51:04;9.70;99.90
2907;DHT22;1463;51.070;16.998;2023-04-15T05:53:32;9.70;99.90
2907;DHT22;1463;51.070;16.998;2023-04-15T05:55:59;9.70;99.90
2907;DHT22;1463;51.070;16.998;2023-04-15T05:58:27;9.50;99.90
2907;DHT22;1463;51.070;16.998;2023-04-15T06:00:56;9.60;99.90
2907;DHT22;1463;51.070;16.998;2023-04-15T06:03:23;9.60;99.90
2907;DHT22;1463;51.070;16.998;2023-04-15T06:05:51;9.50;99.90
2907;DHT22;1463;51.070;16.998;2023-04-15T06:08:19;9.60;99.90
2907;DHT22;1463;51.070;16.998;2023-04-15T06:10:47;9.70;99.90
2907;DHT22;1463;51.070;16.998;2023-04-15T06:13:14;9.70;99.90
2907;DHT22;1463;51.070;16.998;2023-04-15T06:15:42;9.60;99.90
2907;DHT22;1463;51.070;16.998;2023-04-15T06:18:11;9.50;99.90
2907;DHT22;1463;51.070;16.998;2023-04-15T06:20:38;9.50;99.90
2907;DHT22;1463;51.070;16.998;2023-04-15T06:23:06;9.60;99.90
2907;DHT22;1463;51.070;16.998;2023-04-15T06:25:34;9.60;99.90
2907;DHT22;1463;51.070;16.998;2023-04-15T06:28:01;9.50;99.90
2907;DHT22;1463;51.070;16.998;2023-04-15T06:30:29;9.50;99.90
2907;DHT22;1463;51.070;16.998;2023-04-15T06:32:56;9.60;99.90
2907;DHT22;1463;51.070;16.998;2023-04-15T06:35:26;9.70;99.90
2907;DHT22;1463;51.070;16.998;2023-04-15T06:37:53;9.80;99.90
2907;DHT22;1463;51.070;16.998;2023-04-15T06:40:21;9.80;99.90
2907;DHT22;1463;51.070;16.998;2023-04-15T06:42:49;9.80;99.90
2907;DHT22;1463;51.070;16.998;2023-04-15T06:45:16;9.90;99.90
2907;DHT22;1463;51.070;16.998;2023-04-15T06:47:44;9.80;99.90
2907;DHT22;1463;51.070;16.998;2023-04-15T06:50:11;9.80;99.90
2907;DHT22;1463;51.070;16.998;2023-04-15T06:52:40;9.80;99.90
2907;DHT22;1463;51.070;16.998;2023-04-15T06:55:08;9.80;99.90
2907;DHT22;1463;51.070;16.998;2023-04-15T06:57:36;9.80;99.90
2907;DHT22;1463;51.070;16.998;2023-04-15T07:00:04;9.80;99.90
2907;DHT22;1463;51.070;16.998;2023-04-15T07:02:32;9.90;99.90
2907;DHT22;1463;51.070;16.998;2023-04-15T07:04:59;10.00;99.90
2907;DHT22;1463;51.070;16.998;2023-04-15T07:07:27;10.00;99.90
2907;DHT22;1463;51.070;16.998;2023-04-15T07:09:56;10.00;99.90
2907;DHT22;1463;51.070;16.998;2023-04-15T07:12:23;10.00;99.90
2907;DHT22;1463;51.070;16.998;2023-04-15T07:14:51;9.80;99.90
2907;DHT22;1463;51.070;16.998;2023-04-15T07:17:18;9.90;99.90
2907;DHT22;1463;51.070;16.998;2023-04-15T07:19:46;9.90;99.90
2907;DHT22;1463;51.070;16.998;2023-04-15T07:22:14;10.00;99.90
2907;DHT22;1463;51.070;16.998;2023-04-15T07:24:41;10.10;99.90
2907;DHT22;1463;51.070;16.998;2023-04-15T07:27:10;10.10;99.90
2907;DHT22;1463;51.070;16.998;2023-04-15T07:29:37;10.10;99.90
2907;DHT22;1463;51.070;16.998;2023-04-15T07:32:06;9.90;99.90
2907;DHT22;1463;51.070;16.998;2023-04-15T07:34:35;9.90;99.90
2907;DHT22;1463;51.070;16.998;2023-04-15T07:37:03;9.80;99.90
2907;DHT22;1463;51.070;16.998;2023-04-15T07:39:30;9.90;99.90
2907;DHT22;1463;51.070;16.998;2023-04-15T07:41:58;10.00;99.90
2907;DHT22;1463;51.070;16.998;2023-04-15T07:44:27;9.90;99.90
2907;DHT22;1463;51.070;16.998;2023-04-15T07:46:55;10.00;99.90
2907;DHT22;1463;51.070;16.998;2023-04-15T07:49:23;9.90;99.90
2907;DHT22;1463;51.070;16.998;2023-04-15T07:51:50;10.10;99.90
2907;DHT22;1463;51.070;16.998;2023-04-15T07:54:18;10.20;99.90
2907;DHT22;1463;51.070;16.998;2023-04-15T07:56:45;10.30;99.90
2907;DHT22;1463;51.070;16.998;2023-04-15T07:59:14;10.20;99.90
2907;DHT22;1463;51.070;16.998;2023-04-15T08:01:44;10.30;99.90
2907;DHT22;1463;51.070;16.998;2023-04-15T08:04:11;10.40;99.90
2907;DHT22;1463;51.070;16.998;2023-04-15T08:06:39;10.40;99.90
2907;DHT22;1463;51.070;16.998;2023-04-15T08:09:06;10.20;99.90
2907;DHT22;1463;51.070;16.998;2023-04-15T08:11:34;10.20;99.90
2907;DHT22;1463;51.070;16.998;2023-04-15T08:14:02;10.30;99.90
2907;DHT22;1463;51.070;16.998;2023-04-15T08:16:30;10.40;99.90
2907;DHT22;1463;51.070;16.998;2023-04-15T08:18:59;10.30;99.90
2907;DHT22;1463;51.070;16.998;2023-04-15T08:21:27;10.30;99.90
2907;DHT22;1463;51.070;16.998;2023-04-15T08:23:55;10.40;99.90
2907;DHT22;1463;51.070;16.998;2023-04-15T08:26:23;10.70;99.90
2907;DHT22;1463;51.070;16.998;2023-04-15T08:28:51;11.00;99.90
2907;DHT22;1463;51.070;16.998;2023-04-15T08:31:19;11.40;99.90
2907;DHT22;1463;51.070;16.998;2023-04-15T08:33:46;11.60;99.90
2907;DHT22;1463;51.070;16.998;2023-04-15T08:36:15;12.40;99.90
2907;DHT22;1463;51.070;16.998;2023-04-15T08:38:44;13.80;99.90
2907;DHT22;1463;51.070;16.998;2023-04-15T08:41:19;16.30;98.50
2907;DHT22;1463;51.070;16.998;2023-04-15T08:43:52;18.80;89.10
2907;DHT22;1463;51.070;16.998;2023-04-15T08:46:20;17.80;78.50
2907;DHT22;1463;51.070;16.998;2023-04-15T08:48:49;17.70;78.10
2907;DHT22;1463;51.070;16.998;2023-04-15T08:51:18;18.30;77.50
2907;DHT22;1463;51.070;16.998;2023-04-15T08:53:46;17.90;75.00
2907;DHT22;1463;51.070;16.998;2023-04-15T08:56:15;16.50;78.20
2907;DHT22;1463;51.070;16.998;2023-04-15T08:58:43;15.70;82.00
2907;DHT22;1463;51.070;16.998;2023-04-15T09:01:12;15.60;83.80
2907;DHT22;1463;51.070;16.998;2023-04-15T09:03:39;15.60;82.60
2907;DHT22;1463;51.070;16.998;2023-04-15T09:06:08;15.50;81.80
2907;DHT22;1463;51.070;16.998;2023-04-15T09:08:37;15.20;85.00
2907;DHT22;1463;51.070;16.998;2023-04-15T09:11:05;15.10;84.60
2907;DHT22;1463;51.070;16.998;2023-04-15T09:13:33;15.10;86.70
2907;DHT22;1463;51.070;16.998;2023-04-15T09:16:01;14.80;87.50
2907;DHT22;1463;51.070;16.998;2023-04-15T09:18:30;14.30;90.40
2907;DHT22;1463;51.070;16.998;2023-04-15T09:21:04;14.10;91.80
2907;DHT22;1463;51.070;16.998;2023-04-15T09:23:33;14.20;92.70
2907;DHT22;1463;51.070;16.998;2023-04-15T09:26:04;14.30;92.60
2907;DHT22;1463;51.070;16.998;2023-04-15T09:28:34;14.40;92.40
2907;DHT22;1463;51.070;16.998;2023-04-15T09:31:07;14.60;92.30
2907;DHT22;1463;51.070;16.998;2023-04-15T09:33:35;14.90;92.00
2907;DHT22;1463;51.070;16.998;2023-04-15T09:36:20;14.80;90.90
2907;DHT22;1463;51.070;16.998;2023-04-15T09:38:54;14.90;91.70
2907;DHT22;1463;51.070;16.998;2023-04-15T09:41:23;15.10;91.50
2907;DHT22;1463;51.070;16.998;2023-04-15T09:43:51;15.10;90.20
2907;DHT22;1463;51.070;16.998;2023-04-15T09:46:19;14.70;90.10
2907;DHT22;1463;51.070;16.998;2023-04-15T09:48:47;14.30;90.30
2907;DHT22;1463;51.070;16.998;2023-04-15T09:51:34;14.00;91.20
2907;DHT22;1463;51.070;16.998;2023-04-15T09:54:02;13.50;91.50
2907;DHT22;1463;51.070;16.998;2023-04-15T09:56:34;13.60;92.30
2907;DHT22;1463;51.070;16.998;2023-04-15T09:59:03;13.70;92.20
2907;DHT22;1463;51.070;16.998;2023-04-15T10:01:31;13.80;90.60
2907;DHT22;1463;51.070;16.998;2023-04-15T10:04:02;14.00;90.70
2907;DHT22;1463;51.070;16.998;2023-04-15T10:06:30;14.10;89.80
2907;DHT22;1463;51.070;16.998;2023-04-15T10:08:58;14.20;89.90
2907;DHT22;1463;51.070;16.998;2023-04-15T10:11:27;14.50;90.10
2907;DHT22;1463;51.070;16.998;2023-04-15T10:13:57;14.80;90.10
2907;DHT22;1463;51.070;16.998;2023-04-15T10:16:26;15.00;89.60
2907;DHT22;1463;51.070;16.998;2023-04-15T10:18:55;15.00;85.90
2907;DHT22;1463;51.070;16.998;2023-04-15T10:21:23;14.90;86.20
2907;DHT22;1463;51.070;16.998;2023-04-15T10:23:51;14.60;85.70
2907;DHT22;1463;51.070;16.998;2023-04-15T10:26:19;14.50;84.70
2907;DHT22;1463;51.070;16.998;2023-04-15T10:28:46;14.60;85.80
2907;DHT22;1463;51.070;16.998;2023-04-15T10:31:16;14.80;87.80
2907;DHT22;1463;51.070;16.998;2023-04-15T10:33:45;14.90;83.70
2907;DHT22;1463;51.070;16.998;2023-04-15T10:36:14;14.80;82.60
2907;DHT22;1463;51.070;16.998;2023-04-15T10:38:42;14.80;83.70
2907;DHT22;1463;51.070;16.998;2023-04-15T10:41:15;14.70;84.30
2907;DHT22;1463;51.070;16.998;2023-04-15T10:43:51;14.70;84.90
2907;DHT22;1463;51.070;16.998;2023-04-15T10:46:21;14.70;84.70
2907;DHT22;1463;51.070;16.998;2023-04-15T10:48:51;14.60;84.60
2907;DHT22;1463;51.070;16.998;2023-04-15T10:51:30;14.10;85.20
2907;DHT22;1463;51.070;16.998;2023-04-15T10:53:58;14.20;84.20
2907;DHT22;1463;51.070;16.998;2023-04-15T10:56:28;14.10;85.40
2907;DHT22;1463;51.070;16.998;2023-04-15T10:58:58;14.10;86.40
2907;DHT22;1463;51.070;16.998;2023-04-15T11:01:52;14.20;86.00
2907;DHT22;1463;51.070;16.998;2023-04-15T11:04:52;14.30;85.50
2907;DHT22;1463;51.070;16.998;2023-04-15T11:07:40;14.30;86.30
2907;DHT22;1463;51.070;16.998;2023-04-15T11:10:49;14.30;85.90
2907;DHT22;1463;51.070;16.998;2023-04-15T11:13:26;14.20;86.90
2907;DHT22;1463;51.070;16.998;2023-04-15T11:16:01;14.20;86.10
2907;DHT22;1463;51.070;16.998;2023-04-15T11:18:33;14.10;87.00
2907;DHT22;1463;51.070;16.998;2023-04-15T11:21:05;13.90;86.50
2907;DHT22;1463;51.070;16.998;2023-04-15T11:23:36;14.10;87.60
2907;DHT22;1463;51.070;16.998;2023-04-15T11:26:05;14.30;89.60
2907;DHT22;1463;51.070;16.998;2023-04-15T11:28:34;14.60;88.80
2907;DHT22;1463;51.070;16.998;2023-04-15T11:31:07;15.00;87.60
2907;DHT22;1463;51.070;16.998;2023-04-15T11:33:38;15.30;84.70
2907;DHT22;1463;51.070;16.998;2023-04-15T11:36:07;15.30;83.20
2907;DHT22;1463;51.070;16.998;2023-04-15T11:38:36;15.60;86.30
2907;DHT22;1463;51.070;16.998;2023-04-15T11:41:04;15.90;84.50
2907;DHT22;1463;51.070;16.998;2023-04-15T11:43:31;15.60;83.20
2907;DHT22;1463;51.070;16.998;2023-04-15T11:46:01;15.60;82.80
2907;DHT22;1463;51.070;16.998;2023-04-15T11:48:30;15.80;82.80
2907;DHT22;1463;51.070;16.998;2023-04-15T11:51:01;16.10;79.90
2907;DHT22;1463;51.070;16.998;2023-04-15T11:53:40;16.60;80.40
2907;DHT22;1463;51.070;16.998;2023-04-15T11:56:08;16.90;76.90
2907;DHT22;1463;51.070;16.998;2023-04-15T11:58:37;16.70;75.20
2907;DHT22;1463;51.070;16.998;2023-04-15T12:01:06;16.80;75.70
2907;DHT22;1463;51.070;16.998;2023-04-15T12:03:37;16.80;74.90
2907;DHT22;1463;51.070;16.998;2023-04-15T12:06:15;17.00;76.10
2907;DHT22;1463;51.070;16.998;2023-04-15T12:09:02;17.20;75.00
2907;DHT22;1463;51.070;16.998;2023-04-15T12:11:35;17.20;74.20
2907;DHT22;1463;51.070;16.998;2023-04-15T12:14:08;17.30;74.10
2907;DHT22;1463;51.070;16.998;2023-04-15T12:16:38;17.20;72.10
2907;DHT22;1463;51.070;16.998;2023-04-15T12:19:08;17.30;72.30
2907;DHT22;1463;51.070;16.998;2023-04-15T12:21:39;17.30;72.60
2907;DHT22;1463;51.070;16.998;2023-04-15T12:24:08;17.40;72.80
2907;DHT22;1463;51.070;16.998;2023-04-15T12:26:42;17.60;73.00
2907;DHT22;1463;51.070;16.998;2023-04-15T12:29:11;17.00;70.20
2907;DHT22;1463;51.070;16.998;2023-04-15T12:31:50;16.80;72.50
2907;DHT22;1463;51.070;16.998;2023-04-15T12:34:24;16.70;76.20
2907;DHT22;1463;51.070;16.998;2023-04-15T12:36:54;17.00;77.80
2907;DHT22;1463;51.070;16.998;2023-04-15T12:39:23;17.30;77.20
2907;DHT22;1463;51.070;16.998;2023-04-15T12:41:50;17.40;73.90
2907;DHT22;1463;51.070;16.998;2023-04-15T12:44:18;17.50;74.20
2907;DHT22;1463;51.070;16.998;2023-04-15T12:46:46;17.50;73.20
2907;DHT22;1463;51.070;16.998;2023-04-15T12:49:14;17.40;71.80
2907;DHT22;1463;51.070;16.998;2023-04-15T12:51:44;17.30;70.60
2907;DHT22;1463;51.070;16.998;2023-04-15T12:54:13;17.00;71.00
2907;DHT22;1463;51.070;16.998;2023-04-15T12:56:40;16.90;72.90
2907;DHT22;1463;51.070;16.998;2023-04-15T12:59:08;16.60;74.40
2907;DHT22;1463;51.070;16.998;2023-04-15T13:01:35;16.50;73.60
2907;DHT22;1463;51.070;16.998;2023-04-15T13:04:03;16.30;74.00
2907;DHT22;1463;51.070;16.998;2023-04-15T13:06:31;16.10;72.60
2907;DHT22;1463;51.070;16.998;2023-04-15T13:08:59;16.00;73.70
2907;DHT22;1463;51.070;16.998;2023-04-15T13:11:28;16.00;74.80
2907;DHT22;1463;51.070;16.998;2023-04-15T13:14:01;15.90;75.90
2907;DHT22;1463;51.070;16.998;2023-04-15T13:16:28;16.10;75.30
2907;DHT22;1463;51.070;16.998;2023-04-15T13:18:56;16.20;73.60
2907;DHT22;1463;51.070;16.998;2023-04-15T13:21:24;16.10;73.70
2907;DHT22;1463;51.070;16.998;2023-04-15T13:23:52;16.20;74.40
2907;DHT22;1463;51.070;16.998;2023-04-15T13:26:19;16.40;74.80
2907;DHT22;1463;51.070;16.998;2023-04-15T13:28:48;16.60;75.10
2907;DHT22;1463;51.070;16.998;2023-04-15T13:31:16;16.70;75.20
2907;DHT22;1463;51.070;16.998;2023-04-15T13:33:43;16.90;73.80
2907;DHT22;1463;51.070;16.998;2023-04-15T13:36:11;17.10;72.60
2907;DHT22;1463;51.070;16.998;2023-04-15T13:38:38;17.10;71.50
2907;DHT22;1463;51.070;16.998;2023-04-15T13:41:05;17.20;72.10
2907;DHT22;1463;51.070;16.998;2023-04-15T13:43:33;17.40;71.70
2907;DHT22;1463;51.070;16.998;2023-04-15T13:46:02;17.50;72.30
2907;DHT22;1463;51.070;16.998;2023-04-15T13:48:29;17.40;71.50
2907;DHT22;1463;51.070;16.998;2023-04-15T13:50:57;17.60;71.40
2907;DHT22;1463;51.070;16.998;2023-04-15T13:53:24;17.70;69.40
2907;DHT22;1463;51.070;16.998;2023-04-15T13:55:52;17.70;68.60
2907;DHT22;1463;51.070;16.998;2023-04-15T13:58:19;17.60;66.80
2907;DHT22;1463;51.070;16.998;2023-04-15T14:00:47;17.60;68.90
2907;DHT22;1463;51.070;16.998;2023-04-15T14:03:15;17.70;68.60
2907;DHT22;1463;51.070;16.998;2023-04-15T14:05:44;17.80;69.40
2907;DHT22;1463;51.070;16.998;2023-04-15T14:08:12;17.80;68.90
2907;DHT22;1463;51.070;16.998;2023-04-15T14:10:39;17.80;69.70
2907;DHT22;1463;51.070;16.998;2023-04-15T14:13:09;17.80;68.50
2907;DHT22;1463;51.070;16.998;2023-04-15T14:15:36;17.80;69.40
2907;DHT22;1463;51.070;16.998;2023-04-15T14:18:04;17.80;69.40
2907;DHT22;1463;51.070;16.998;2023-04-15T14:20:33;17.90;70.90
2907;DHT22;1463;51.070;16.998;2023-04-15T14:23:00;18.00;69.70
2907;DHT22;1463;51.070;16.998;2023-04-15T14:25:28;17.90;69.70
2907;DHT22;1463;51.070;16.998;2023-04-15T14:27:55;17.90;68.40
2907;DHT22;1463;51.070;16.998;2023-04-15T14:30:23;17.60;68.70
2907;DHT22;1463;51.070;16.998;2023-04-15T14:32:50;17.70;69.90
2907;DHT22;1463;51.070;16.998;2023-04-15T14:35:18;17.70;70.70
2907;DHT22;1463;51.070;16.998;2023-04-15T14:37:47;17.80;69.50
2907;DHT22;1463;51.070;16.998;2023-04-15T14:40:14;17.80;68.40
2907;DHT22;1463;51.070;16.998;2023-04-15T14:42:42;17.70;68.20
2907;DHT22;1463;51.070;16.998;2023-04-15T14:45:10;17.50;67.90
2907;DHT22;1463;51.070;16.998;2023-04-15T14:47:37;17.30;68.70
2907;DHT22;1463;51.070;16.998;2023-04-15T14:50:06;17.40;70.50
2907;DHT22;1463;51.070;16.998;2023-04-15T14:52:33;17.60;72.80
2907;DHT22;1463;51.070;16.998;2023-04-15T14:55:06;17.60;69.80
2907;DHT22;1463;51.070;16.998;2023-04-15T14:57:35;17.80;69.20
2907;DHT22;1463;51.070;16.998;2023-04-15T15:00:04;17.90;71.00
2907;DHT22;1463;51.070;16.998;2023-04-15T15:02:32;18.00;72.20
2907;DHT22;1463;51.070;16.998;2023-04-15T15:05:02;18.10;70.10
2907;DHT22;1463;51.070;16.998;2023-04-15T15:07:29;18.10;69.30
2907;DHT22;1463;51.070;16.998;2023-04-15T15:09:57;17.90;69.20
2907;DHT22;1463;51.070;16.998;2023-04-15T15:12:25;18.00;69.30
2907;DHT22;1463;51.070;16.998;2023-04-15T15:14:54;18.10;69.50
2907;DHT22;1463;51.070;16.998;2023-04-15T15:17:22;18.00;67.70
2907;DHT22;1463;51.070;16.998;2023-04-15T15:19:49;17.90;69.20
2907;DHT22;1463;51.070;16.998;2023-04-15T15:22:17;17.90;67.00
2907;DHT22;1463;51.070;16.998;2023-04-15T15:24:44;17.80;69.10
2907;DHT22;1463;51.070;16.998;2023-04-15T15:27:12;17.80;70.00
2907;DHT22;1463;51.070;16.998;2023-04-15T15:29:41;17.80;69.90
2907;DHT22;1463;51.070;16.998;2023-04-15T15:32:08;17.90;69.40
2907;DHT22;1463;51.070;16.998;2023-04-15T15:34:36;17.90;69.40
2907;DHT22;1463;51.070;16.998;2023-04-15T15:37:05;17.90;70.20
2907;DHT22;1463;51.070;16.998;2023-04-15T15:39:34;17.80;70.50
2907;DHT22;1463;51.070;16.998;2023-04-15T15:42:02;18.00;70.90
2907;DHT22;1463;51.070;16.998;2023-04-15T15:44:29;17.80;71.50
2907;DHT22;1463;51.070;16.998;2023-04-15T15:46:58;17.80;72.20
2907;DHT22;1463;51.070;16.998;2023-04-15T15:49:26;17.70;71.30
2907;DHT22;1463;51.070;16.998;2023-04-15T15:51:55;17.70;72.80
2907;DHT22;1463;51.070;16.998;2023-04-15T15:54:22;17.80;71.10
2907;DHT22;1463;51.070;16.998;2023-04-15T15:56:50;17.60;70.70